createdAt,value
2023-03-14T00:01:21.167Z,10.50
2023-03-14T00:04:13.146Z,10.44
2023-03-14T00:07:05.359Z,10.40
2023-03-14T00:09:57.334Z,10.37
2023-03-14T00:12:49.393Z,10.34
2023-03-14T00:15:41.394Z,10.29
2023-03-14T00:18:33.682Z,10.25
2023-03-14T00:21:25.652Z,10.22
2023-03-14T00:24:17.871Z,10.20
2023-03-14T00:27:09.891Z,10.16
2023-03-14T00:30:01.898Z,10.12
2023-03-14T00:32:53.922Z,10.10
2023-03-14T00:35:45.957Z,10.08
2023-03-14T00:38:38.919Z,10.02
2023-03-14T00:41:30.932Z,9.98
2023-03-14T00:44:22.991Z,9.92
2023-03-14T00:47:14.991Z,9.87
2023-03-14T00:50:07.967Z,9.84
2023-03-14T00:52:59.955Z,9.80
2023-03-14T00:55:38.012Z,9.74
2023-03-14T00:58:30.153Z,9.68
2023-03-14T01:01:14.486Z,9.62
2023-03-14T01:04:06.522Z,9.54
2023-03-14T01:06:58.433Z,9.47
2023-03-14T01:09:53.061Z,9.42
2023-03-14T01:12:45.180Z,9.35
2023-03-14T01:15:38.527Z,9.29
2023-03-14T01:18:30.479Z,9.23
2023-03-14T01:21:26.040Z,9.17
2023-03-14T01:24:18.081Z,9.10
2023-03-14T01:26:50.177Z,9.05
2023-03-14T01:29:42.163Z,8.93
2023-03-14T01:32:34.419Z,8.83
2023-03-14T01:35:26.596Z,8.76
2023-03-14T01:38:18.602Z,8.69
2023-03-14T01:41:14.564Z,8.62
2023-03-14T01:44:06.608Z,8.56
2023-03-14T01:46:58.662Z,8.48
2023-03-14T01:49:54.183Z,8.45
2023-03-14T01:52:49.723Z,8.41
2023-03-14T01:55:41.945Z,8.38
2023-03-14T01:58:20.988Z,8.35
2023-03-14T02:01:13.564Z,8.33
2023-03-14T02:04:08.373Z,8.31
2023-03-14T02:07:06.853Z,8.26
2023-03-14T02:10:00.254Z,8.22
2023-03-14T02:12:37.469Z,8.17
2023-03-14T02:15:29.771Z,8.11
2023-03-14T02:18:22.405Z,8.08
2023-03-14T02:21:23.288Z,8.04
2023-03-14T02:24:23.442Z,7.99
2023-03-14T02:27:17.258Z,7.98
2023-03-14T02:30:15.168Z,7.96
2023-03-14T02:33:10.210Z,7.92
2023-03-14T02:36:04.847Z,7.91
2023-03-14T02:39:04.948Z,7.89
2023-03-14T02:41:56.875Z,7.86
2023-03-14T02:45:23.457Z,7.82
2023-03-14T02:48:21.245Z,7.78
2023-03-14T02:51:14.344Z,7.75
2023-03-14T02:54:09.992Z,7.72
2023-03-14T02:57:01.940Z,7.71
2023-03-14T02:59:53.889Z,7.69
2023-03-14T03:02:45.919Z,7.68
2023-03-14T03:05:38.108Z,7.66
2023-03-14T03:08:31.388Z,7.65
2023-03-14T03:11:23.354Z,7.63
2023-03-14T03:14:15.364Z,7.61
2023-03-14T03:17:07.746Z,7.59
2023-03-14T03:19:59.805Z,7.55
2023-03-14T03:22:51.805Z,7.51
2023-03-14T03:25:43.846Z,7.48
2023-03-14T03:28:35.836Z,7.45
2023-03-14T03:31:27.840Z,7.38
2023-03-14T03:34:19.811Z,7.31
2023-03-14T03:37:11.776Z,7.26
2023-03-14T03:40:05.727Z,7.21
2023-03-14T03:42:57.857Z,7.19
2023-03-14T03:45:49.713Z,7.18
2023-03-14T03:48:41.901Z,7.18
2023-03-14T03:51:23.979Z,7.19
2023-03-14T03:54:16.164Z,7.20
2023-03-14T03:57:08.185Z,7.19
2023-03-14T04:00:00.138Z,7.16
2023-03-14T04:02:52.356Z,7.14
2023-03-14T04:05:44.358Z,7.14
2023-03-14T04:08:36.467Z,7.15
2023-03-14T04:11:28.616Z,7.17
2023-03-14T04:14:20.663Z,7.19
2023-03-14T04:17:12.734Z,7.21
2023-03-14T04:20:05.674Z,7.22
2023-03-14T04:22:57.659Z,7.23
2023-03-14T04:25:52.091Z,7.20
2023-03-14T04:28:46.126Z,7.17
2023-03-14T04:31:38.195Z,7.16
2023-03-14T04:34:30.191Z,7.19
2023-03-14T04:37:22.271Z,7.20
2023-03-14T04:40:18.734Z,7.26
2023-03-14T04:43:12.177Z,7.32
2023-03-14T04:46:04.157Z,7.37
2023-03-14T04:48:57.615Z,7.39
2023-03-14T04:51:51.656Z,7.45
2023-03-14T04:54:43.700Z,7.50
2023-03-14T04:57:35.691Z,7.53
2023-03-14T05:00:27.732Z,7.53
2023-03-14T05:02:59.812Z,7.53
2023-03-14T05:05:51.801Z,7.54
2023-03-14T05:08:43.785Z,7.56
2023-03-14T05:11:35.824Z,7.58
2023-03-14T05:14:18.872Z,7.59
2023-03-14T05:17:11.329Z,7.61
2023-03-14T05:20:05.300Z,7.64
2023-03-14T05:22:57.361Z,7.67
2023-03-14T05:25:49.402Z,7.68
2023-03-14T05:28:41.378Z,7.71
2023-03-14T05:31:33.474Z,7.74
2023-03-14T05:34:25.452Z,7.78
2023-03-14T05:36:59.943Z,7.81
2023-03-14T05:39:51.987Z,7.81
2023-03-14T05:42:43.941Z,7.83
2023-03-14T05:45:36.031Z,7.85
2023-03-14T05:48:28.107Z,7.86
2023-03-14T05:51:20.291Z,7.88
2023-03-14T05:54:12.285Z,7.93
2023-03-14T05:57:04.293Z,8.03
2023-03-14T05:59:56.359Z,8.15
2023-03-14T06:02:48.669Z,8.29
2023-03-14T06:05:40.690Z,8.45
2023-03-14T06:08:32.702Z,8.57
2023-03-14T06:11:24.789Z,8.69
2023-03-14T06:14:16.810Z,8.81
2023-03-14T06:17:08.780Z,8.94
2023-03-14T06:20:00.835Z,9.07
2023-03-14T06:22:52.840Z,9.20
2023-03-14T06:25:44.814Z,9.33
2023-03-14T06:28:36.909Z,9.46
2023-03-14T06:31:28.967Z,9.57
2023-03-14T06:34:21.020Z,9.68
2023-03-14T06:37:13.088Z,9.78
2023-03-14T06:40:06.289Z,9.86
2023-03-14T06:42:58.431Z,9.94
2023-03-14T06:45:50.616Z,10.02
2023-03-14T06:48:22.579Z,10.08
2023-03-14T06:51:14.584Z,10.16
2023-03-14T06:54:06.880Z,10.26
2023-03-14T06:56:58.955Z,10.37
2023-03-14T06:59:50.969Z,10.50
2023-03-14T07:02:43.512Z,10.63
2023-03-14T07:05:35.777Z,10.74
2023-03-14T07:08:27.762Z,10.85
2023-03-14T07:11:19.800Z,10.95
2023-03-14T07:14:11.778Z,11.07
2023-03-14T07:17:03.763Z,11.16
2023-03-14T07:19:55.761Z,11.24
2023-03-14T07:22:49.126Z,11.33
2023-03-14T07:25:41.149Z,11.40
2023-03-14T07:28:33.236Z,11.46
2023-03-14T07:31:25.659Z,11.53
2023-03-14T07:34:17.651Z,11.61
2023-03-14T07:37:09.652Z,11.70
2023-03-14T07:40:01.879Z,11.81
2023-03-14T07:42:56.203Z,11.90
2023-03-14T07:45:58.872Z,12.03
2023-03-14T07:48:51.284Z,12.14
2023-03-14T07:51:44.985Z,12.29
2023-03-14T07:54:36.978Z,12.44
2023-03-14T07:57:29.018Z,12.57
2023-03-14T08:00:23.351Z,12.68
2023-03-14T08:03:13.845Z,12.78
2023-03-14T08:06:06.335Z,13.08
2023-03-14T08:08:41.464Z,13.56
2023-03-14T08:11:33.919Z,14.32
2023-03-14T08:14:25.988Z,15.09
2023-03-14T08:17:18.217Z,15.87
2023-03-14T08:19:58.952Z,16.32
2023-03-14T08:22:51.570Z,16.50
2023-03-14T08:25:44.203Z,16.75
2023-03-14T08:28:36.261Z,16.90
2023-03-14T08:31:28.365Z,17.02
2023-03-14T08:34:20.438Z,17.42
2023-03-14T08:37:25.401Z,18.11
2023-03-14T08:40:18.955Z,18.75
2023-03-14T08:43:10.925Z,19.19
2023-03-14T08:46:04.262Z,19.64
2023-03-14T08:48:56.180Z,20.49
2023-03-14T08:51:48.155Z,21.13
2023-03-14T08:54:40.217Z,21.33
2023-03-14T08:57:32.251Z,21.18
2023-03-14T09:00:25.503Z,20.78
2023-03-14T09:03:17.568Z,20.18
2023-03-14T09:06:12.298Z,19.82
2023-03-14T09:09:04.700Z,19.23
2023-03-14T09:11:57.064Z,18.72
2023-03-14T09:14:49.046Z,18.43
2023-03-14T09:17:41.146Z,18.22
2023-03-14T09:20:33.227Z,18.00
2023-03-14T09:23:25.377Z,17.65
2023-03-14T09:26:17.536Z,17.49
2023-03-14T09:29:09.567Z,17.21
2023-03-14T09:32:01.816Z,17.05
2023-03-14T09:34:53.887Z,16.91
2023-03-14T09:37:45.920Z,16.71
2023-03-14T09:40:39.831Z,16.60
2023-03-14T09:43:35.546Z,16.47
2023-03-14T09:46:28.231Z,16.32
2023-03-14T09:49:25.760Z,16.28
2023-03-14T09:52:19.956Z,16.38
2023-03-14T09:55:04.718Z,16.55
2023-03-14T09:58:01.178Z,16.95
2023-03-14T10:00:56.279Z,17.48
2023-03-14T10:03:49.224Z,17.55
2023-03-14T10:06:41.358Z,17.47
2023-03-14T10:09:33.433Z,17.35
2023-03-14T10:12:34.320Z,17.29
2023-03-14T10:15:12.648Z,17.27
2023-03-14T10:18:13.292Z,17.06
2023-03-14T10:21:20.155Z,16.96
2023-03-14T10:24:23.572Z,16.77
2023-03-14T10:27:22.795Z,16.56
2023-03-14T10:30:44.980Z,16.42
2023-03-14T10:33:38.738Z,16.27
2023-03-14T10:36:34.484Z,16.14
2023-03-14T10:39:30.703Z,16.05
2023-03-14T10:42:15.625Z,15.96
2023-03-14T10:44:56.751Z,15.83
2023-03-14T10:47:53.716Z,15.64
2023-03-14T10:50:51.957Z,15.53
2023-03-14T10:53:46.316Z,15.43
2023-03-14T10:56:39.427Z,15.36
2023-03-14T10:59:38.164Z,15.30
2023-03-14T11:03:03.789Z,15.25
2023-03-14T11:05:58.436Z,15.16
2023-03-14T11:08:59.457Z,15.09
2023-03-14T11:11:51.528Z,15.03
2023-03-14T11:14:49.168Z,14.99
2023-03-14T11:17:49.750Z,14.96
2023-03-14T11:20:48.796Z,14.91
2023-03-14T11:23:53.219Z,14.82
2023-03-14T11:26:55.733Z,14.78
2023-03-14T11:29:56.638Z,14.72
2023-03-14T11:32:52.925Z,14.64
2023-03-14T11:35:49.296Z,14.59
2023-03-14T11:38:35.481Z,14.52
2023-03-14T11:41:31.702Z,14.46
2023-03-14T11:44:28.384Z,14.41
2023-03-14T11:47:26.217Z,14.38
2023-03-14T11:50:20.843Z,14.32
2023-03-14T11:53:20.276Z,14.20
2023-03-14T11:56:20.438Z,14.05
2023-03-14T11:59:20.493Z,14.00
2023-03-14T12:02:21.974Z,13.96
2023-03-14T12:05:39.747Z,13.96
2023-03-14T12:08:51.541Z,13.85
2023-03-14T12:11:48.649Z,13.84
2023-03-14T12:14:49.695Z,13.83
2023-03-14T12:17:44.216Z,13.82
2023-03-14T12:20:40.757Z,13.83
2023-03-14T12:23:43.061Z,13.81
2023-03-14T12:26:51.018Z,13.81
2023-03-14T12:30:04.764Z,13.83
2023-03-14T12:33:27.921Z,13.83
2023-03-14T12:36:04.861Z,13.80
2023-03-14T12:39:11.259Z,13.78
2023-03-14T12:42:10.592Z,13.76
2023-03-14T12:45:24.377Z,13.72
2023-03-14T12:48:24.223Z,13.68
2023-03-14T12:51:20.877Z,13.68
2023-03-14T12:54:36.350Z,13.68
2023-03-14T12:57:37.277Z,13.68
2023-03-14T13:00:24.852Z,13.70
2023-03-14T13:03:28.482Z,13.71
2023-03-14T13:06:54.866Z,13.68
2023-03-14T13:10:17.720Z,13.60
2023-03-14T13:13:19.728Z,13.60
2023-03-14T13:16:18.235Z,13.60
2023-03-14T13:19:25.350Z,13.60
2023-03-14T13:22:06.583Z,13.61
2023-03-14T13:25:07.261Z,13.62
2023-03-14T13:27:59.793Z,13.59
2023-03-14T13:30:56.891Z,13.57
2023-03-14T13:33:48.895Z,13.53
2023-03-14T13:36:41.120Z,13.45
2023-03-14T13:39:33.931Z,13.42
2023-03-14T13:42:29.702Z,13.41
2023-03-14T13:45:21.792Z,13.35
2023-03-14T13:48:17.432Z,13.33
2023-03-14T13:51:12.763Z,13.34
2023-03-14T13:54:05.282Z,13.29
2023-03-14T13:57:04.873Z,13.24
2023-03-14T14:00:07.920Z,13.22
2023-03-14T14:03:01.969Z,13.17
2023-03-14T14:05:56.207Z,13.12
2023-03-14T14:08:48.504Z,13.10
2023-03-14T14:11:55.959Z,13.09
2023-03-14T14:14:57.171Z,13.07
2023-03-14T14:17:52.920Z,13.05
2023-03-14T14:20:47.841Z,13.01
2023-03-14T14:23:40.414Z,12.94
2023-03-14T14:26:33.222Z,12.93
2023-03-14T14:29:35.325Z,12.85
2023-03-14T14:32:27.449Z,12.83
2023-03-14T14:35:28.068Z,12.81
2023-03-14T14:38:23.074Z,12.85
2023-03-14T14:41:15.342Z,12.87
2023-03-14T14:44:08.467Z,12.84
2023-03-14T14:47:01.041Z,12.85
2023-03-14T14:49:55.081Z,12.85
2023-03-14T14:52:40.245Z,12.80
2023-03-14T14:55:36.290Z,12.77
2023-03-14T14:58:30.095Z,12.76
2023-03-14T15:01:24.806Z,12.75
2023-03-14T15:04:17.663Z,12.75
2023-03-14T15:07:11.902Z,12.78
2023-03-14T15:10:04.206Z,12.74
2023-03-14T15:12:56.836Z,12.74
2023-03-14T15:15:49.436Z,12.73
2023-03-14T15:18:41.809Z,12.72
2023-03-14T15:21:33.894Z,12.70
2023-03-14T15:24:26.418Z,12.63
2023-03-14T15:27:20.008Z,12.57
2023-03-14T15:30:15.318Z,12.59
2023-03-14T15:33:09.798Z,12.61
2023-03-14T15:36:02.700Z,12.63
2023-03-14T15:38:55.929Z,12.55
2023-03-14T15:41:48.359Z,12.53
2023-03-14T15:44:41.080Z,12.49
2023-03-14T15:47:33.391Z,12.47
2023-03-14T15:50:13.285Z,12.42
2023-03-14T15:53:05.451Z,12.35
2023-03-14T15:55:57.524Z,12.28
2023-03-14T15:58:50.010Z,12.24
2023-03-14T16:01:42.055Z,12.24
2023-03-14T16:04:34.220Z,12.17
2023-03-14T16:07:26.454Z,12.13
2023-03-14T16:10:19.168Z,12.06
2023-03-14T16:13:11.385Z,12.02
2023-03-14T16:16:05.676Z,12.02
2023-03-14T16:18:56.437Z,12.01
2023-03-14T16:21:49.950Z,11.98
2023-03-14T16:24:43.736Z,11.96
2023-03-14T16:27:36.145Z,11.94
2023-03-14T16:30:28.196Z,11.93
2023-03-14T16:33:20.808Z,11.97
2023-03-14T16:36:15.623Z,11.98
2023-03-14T16:39:07.941Z,11.98
2023-03-14T16:42:00.347Z,11.97
2023-03-14T16:44:52.583Z,11.96
2023-03-14T16:47:35.817Z,11.94
2023-03-14T16:50:27.901Z,11.92
2023-03-14T16:53:20.048Z,11.89
2023-03-14T16:55:54.818Z,11.88
2023-03-14T16:58:47.312Z,11.86
2023-03-14T17:01:41.143Z,11.82
2023-03-14T17:04:35.467Z,11.78
2023-03-14T17:07:28.253Z,11.73
2023-03-14T17:10:20.950Z,11.71
2023-03-14T17:13:13.805Z,11.69
2023-03-14T17:16:06.587Z,11.67
2023-03-14T17:19:01.789Z,11.61
2023-03-14T17:22:01.637Z,11.57
2023-03-14T17:25:01.954Z,11.51
2023-03-14T17:27:54.323Z,11.47
2023-03-14T17:30:46.756Z,11.41
2023-03-14T17:33:39.457Z,11.36
2023-03-14T17:36:32.772Z,11.40
2023-03-14T17:39:25.065Z,11.39
2023-03-14T17:42:08.540Z,11.40
2023-03-14T17:45:00.975Z,11.43
2023-03-14T17:47:53.162Z,11.43
2023-03-14T17:50:45.293Z,11.41
2023-03-14T17:53:37.973Z,11.42
2023-03-14T17:56:31.523Z,11.41
2023-03-14T17:59:23.708Z,11.39
2023-03-14T18:02:17.179Z,11.36
2023-03-14T18:05:10.810Z,11.30
2023-03-14T18:08:03.216Z,11.20
2023-03-14T18:10:57.438Z,11.14
2023-03-14T18:13:49.878Z,11.08
2023-03-14T18:16:44.717Z,11.05
2023-03-14T18:19:37.167Z,11.04
2023-03-14T18:22:32.350Z,11.04
2023-03-14T18:25:26.422Z,11.01
2023-03-14T18:28:19.108Z,10.96
2023-03-14T18:31:13.393Z,10.92
2023-03-14T18:34:04.099Z,10.88
2023-03-14T18:36:56.706Z,10.83
2023-03-14T18:39:49.080Z,10.84
2023-03-14T18:42:42.947Z,10.84
2023-03-14T18:45:35.279Z,10.81
2023-03-14T18:48:27.809Z,10.81
2023-03-14T18:51:20.702Z,10.82
2023-03-14T18:54:13.410Z,10.81
2023-03-14T18:57:05.906Z,10.77
2023-03-14T18:59:58.520Z,10.72
2023-03-14T19:02:52.835Z,10.70
2023-03-14T19:05:28.305Z,10.70
2023-03-14T19:08:23.473Z,10.79
2023-03-14T19:11:16.912Z,10.79
2023-03-14T19:14:09.240Z,10.78
2023-03-14T19:17:01.303Z,10.79
2023-03-14T19:19:54.247Z,10.83
2023-03-14T19:22:46.559Z,10.87
2023-03-14T19:25:38.794Z,10.89
2023-03-14T19:28:32.223Z,10.87
2023-03-14T19:31:14.111Z,10.84
2023-03-14T19:34:06.512Z,10.82
2023-03-14T19:36:58.845Z,10.82
2023-03-14T19:39:51.355Z,10.82
2023-03-14T19:42:43.573Z,10.78
2023-03-14T19:45:37.298Z,10.75
2023-03-14T19:48:30.656Z,10.72
2023-03-14T19:51:23.759Z,10.69
2023-03-14T19:54:16.144Z,10.69
2023-03-14T19:57:08.212Z,10.69
2023-03-14T20:00:00.813Z,10.68
2023-03-14T20:02:54.291Z,10.65
2023-03-14T20:05:46.615Z,10.60
2023-03-14T20:08:38.867Z,10.56
2023-03-14T20:11:31.768Z,10.55
2023-03-14T20:14:24.279Z,10.53
2023-03-14T20:17:16.354Z,10.51
2023-03-14T20:20:10.674Z,10.46
2023-03-14T20:23:02.913Z,10.44
2023-03-14T20:26:00.091Z,10.45
2023-03-14T20:28:52.187Z,10.44
2023-03-14T20:31:27.374Z,10.45
2023-03-14T20:34:19.386Z,10.45
2023-03-14T20:37:13.539Z,10.42
2023-03-14T20:40:07.208Z,10.37
2023-03-14T20:42:58.782Z,10.35
2023-03-14T20:45:36.102Z,10.33
2023-03-14T20:48:29.614Z,10.34
2023-03-14T20:51:21.766Z,10.34
2023-03-14T20:54:15.098Z,10.33
2023-03-14T20:57:07.452Z,10.39
2023-03-14T20:59:59.467Z,10.40
2023-03-14T21:02:54.119Z,10.41
2023-03-14T21:05:47.736Z,10.43
2023-03-14T21:08:41.417Z,10.42
2023-03-14T21:11:36.323Z,10.40
2023-03-14T21:14:28.522Z,10.38
2023-03-14T21:17:21.002Z,10.38
2023-03-14T21:20:14.558Z,10.36
2023-03-14T21:23:07.059Z,10.32
2023-03-14T21:25:59.354Z,10.28
2023-03-14T21:28:51.422Z,10.28
2023-03-14T21:31:43.421Z,10.23
2023-03-14T21:34:35.493Z,10.16
2023-03-14T21:37:28.223Z,10.14
2023-03-14T21:40:21.215Z,10.11
2023-03-14T21:43:15.652Z,10.12
2023-03-14T21:46:08.072Z,10.10
2023-03-14T21:49:00.143Z,10.12
2023-03-14T21:51:52.357Z,10.14
2023-03-14T21:54:44.416Z,10.16
2023-03-14T21:57:36.408Z,10.16
2023-03-14T22:00:28.676Z,10.15
2023-03-14T22:03:23.470Z,10.18
2023-03-14T22:06:15.639Z,10.23
2023-03-14T22:09:07.717Z,10.35
2023-03-14T22:11:59.857Z,10.38
2023-03-14T22:14:51.924Z,10.36
2023-03-14T22:17:43.893Z,10.36
2023-03-14T22:20:36.014Z,10.40
2023-03-14T22:23:28.083Z,10.42
2023-03-14T22:26:20.076Z,10.41
2023-03-14T22:29:20.387Z,10.43
2023-03-14T22:32:13.447Z,10.44
2023-03-14T22:35:05.645Z,10.45
2023-03-14T22:37:57.934Z,10.48
2023-03-14T22:40:50.266Z,10.44
2023-03-14T22:43:42.247Z,10.38
2023-03-14T22:46:24.384Z,10.33
2023-03-14T22:49:16.441Z,10.29
2023-03-14T22:52:08.722Z,10.21
2023-03-14T22:55:00.769Z,10.09
2023-03-14T22:57:55.086Z,9.92
2023-03-14T23:00:47.151Z,9.80
2023-03-14T23:03:39.235Z,9.68
2023-03-14T23:06:31.199Z,9.59
2023-03-14T23:09:23.247Z,9.50
2023-03-14T23:12:17.595Z,9.36
2023-03-14T23:15:12.204Z,9.25
2023-03-14T23:18:04.270Z,9.19
2023-03-14T23:21:05.251Z,9.08
2023-03-14T23:23:57.400Z,8.98
2023-03-14T23:26:49.350Z,8.91
2023-03-14T23:29:41.303Z,8.88
2023-03-14T23:32:33.755Z,8.85
2023-03-14T23:35:26.008Z,8.76
2023-03-14T23:38:18.118Z,8.64
2023-03-14T23:41:14.655Z,8.54
2023-03-14T23:44:07.065Z,8.46
2023-03-14T23:46:59.018Z,8.38
2023-03-14T23:49:51.143Z,8.31
2023-03-14T23:52:43.146Z,8.20
2023-03-14T23:55:35.567Z,8.14
2023-03-14T23:58:28.276Z,8.07
